Time,TemperatureF,DewpointF,PressureIn,WindDirection,WindDirectionDegrees,WindSpeedMPH,WindSpeedGustMPH,Humidity,HourlyPrecipIn,Conditions,Clouds,dailyrainin,SoftwareType,DateUTC
2013-10-28 00:13:00,46.0,34.0,30.06,NNW,338,0.0,0.0,62,0.00,,,0.00,,2013-10-28 04:13:00,
2013-10-28 00:23:00,46.0,34.0,30.06,NNW,338,0.0,0.0,62,0.00,,,0.00,,2013-10-28 04:23:00,
2013-10-28 00:34:00,46.0,34.0,30.06,NNW,338,0.0,0.0,62,0.00,,,0.00,,2013-10-28 04:34:00,
2013-10-28 00:53:00,47.0,33.0,30.06,West,270,0.0,5.0,59,0.00,,,0.00,,2013-10-28 04:53:00,
2013-10-28 01:13:00,47.0,33.0,30.06,NW,315,0.0,0.0,59,0.00,,,0.00,,2013-10-28 05:13:00,
2013-10-28 01:22:00,47.0,33.0,30.06,NW,315,0.0,0.0,59,0.00,,,0.00,,2013-10-28 05:22:00,
2013-10-28 01:53:00,46.0,32.0,30.09,NNW,338,0.0,2.0,59,0.00,,,0.00,,2013-10-28 05:53:00,
2013-10-28 02:12:00,46.0,33.0,30.09,NW,315,0.0,0.0,60,0.00,,,0.00,,2013-10-28 06:12:00,
2013-10-28 02:22:00,46.0,33.0,30.09,NNW,338,0.0,0.0,61,0.00,,,0.00,,2013-10-28 06:22:00,
2013-10-28 02:52:00,45.0,33.0,30.09,NNW,338,0.0,0.0,62,0.00,,,0.00,,2013-10-28 06:52:00,
2013-10-28 03:22:00,45.0,34.0,30.09,NNW,338,0.0,0.0,64,0.00,,,0.00,,2013-10-28 07:22:00,
2013-10-28 03:52:00,44.0,33.0,30.09,NNW,338,0.0,0.0,66,0.00,,,0.00,,2013-10-28 07:52:00,
2013-10-28 04:22:00,42.0,32.0,30.09,NNW,338,0.0,0.0,67,0.00,,,0.00,,2013-10-28 08:22:00,
2013-10-28 04:32:00,42.0,32.0,30.09,NNW,338,0.0,0.0,67,0.00,,,0.00,,2013-10-28 08:32:00,
2013-10-28 04:52:00,41.0,31.0,30.09,NNW,338,0.0,0.0,68,0.00,,,0.00,,2013-10-28 08:52:00,
2013-10-28 05:22:00,39.0,30.0,30.09,NNW,338,0.0,0.0,70,0.00,,,0.00,,2013-10-28 09:22:00,
2013-10-28 05:53:00,38.0,30.0,30.12,NNW,338,0.0,0.0,72,0.00,,,0.00,,2013-10-28 09:53:00,
2013-10-28 06:23:00,38.0,30.0,30.12,NNW,338,0.0,0.0,74,0.00,,,0.00,,2013-10-28 10:23:00,
2013-10-28 06:53:00,37.0,30.0,30.12,NNW,338,0.0,0.0,75,0.00,,,0.00,,2013-10-28 10:53:00,
2013-10-28 07:12:00,37.0,30.0,30.12,NNW,338,0.0,0.0,75,0.00,,,0.00,,2013-10-28 11:12:00,
2013-10-28 07:22:00,37.0,30.0,30.12,NNW,338,0.0,0.0,75,0.00,,,0.00,,2013-10-28 11:22:00,
2013-10-28 07:52:00,36.0,29.0,30.12,NNW,338,0.0,0.0,76,0.00,,,0.00,,2013-10-28 11:52:00,
2013-10-28 08:12:00,36.0,29.0,30.12,NNW,338,0.0,0.0,76,0.00,,,0.00,,2013-10-28 12:12:00,
2013-10-28 08:21:00,36.0,29.0,30.12,NNW,338,0.0,0.0,76,0.00,,,0.00,,2013-10-28 12:21:00,
2013-10-28 08:42:00,37.0,31.0,30.15,NNW,338,0.0,0.0,78,0.00,,,0.00,,2013-10-28 12:42:00,
2013-10-28 08:52:00,38.0,32.0,30.15,NNW,338,0.0,0.0,79,0.00,,,0.00,,2013-10-28 12:52:00,
2013-10-28 09:22:00,40.0,34.0,30.15,NNW,338,0.0,0.0,80,0.00,,,0.00,,2013-10-28 13:22:00,
2013-10-28 09:52:00,47.0,40.0,30.15,NW,315,0.0,5.0,76,0.00,,,0.00,,2013-10-28 13:52:00,
2013-10-28 10:02:00,47.0,40.0,30.15,NW,315,0.0,5.0,76,0.00,,,0.00,,2013-10-28 14:02:00,
2013-10-28 10:11:00,47.0,40.0,30.15,NW,315,0.0,5.0,76,0.00,,,0.00,,2013-10-28 14:11:00,
2013-10-28 10:22:00,47.0,40.0,30.15,NW,315,0.0,5.0,76,0.00,,,0.00,,2013-10-28 14:22:00,
2013-10-28 10:52:00,50.0,39.0,30.15,WSW,248,0.0,5.0,66,0.00,,,0.00,,2013-10-28 14:52:00,
2013-10-28 11:22:00,52.0,40.0,30.15,SW,225,0.0,3.0,63,0.00,,,0.00,,2013-10-28 15:22:00,
2013-10-28 11:43:00,52.0,39.0,30.15,West,270,0.0,5.0,61,0.00,,,0.00,,2013-10-28 15:43:00,
2013-10-28 11:53:00,52.0,39.0,30.15,West,270,0.0,5.0,61,0.00,,,0.00,,2013-10-28 15:53:00,
2013-10-28 12:23:00,53.0,38.0,30.15,WNW,292,0.0,0.0,56,0.00,,,0.00,,2013-10-28 16:23:00,
2013-10-28 12:53:00,54.0,39.0,30.15,North,0,0.0,4.0,56,0.00,,,0.00,,2013-10-28 16:53:00,
2013-10-28 13:23:00,55.0,40.0,30.15,WNW,292,0.0,4.0,56,0.00,,,0.00,,2013-10-28 17:23:00,
2013-10-28 13:52:00,56.0,42.0,30.12,NW,315,0.0,7.0,60,0.00,,,0.00,,2013-10-28 17:52:00,
2013-10-28 14:22:00,56.0,42.0,30.12,SSE,158,0.0,0.0,59,0.00,,,0.00,,2013-10-28 18:22:00,
2013-10-28 14:52:00,57.0,43.0,30.12,SW,225,0.0,8.0,59,0.00,,,0.00,,2013-10-28 18:52:00,
2013-10-28 15:22:00,57.0,42.0,30.12,North,0,0.0,7.0,58,0.00,,,0.00,,2013-10-28 19:22:00,
2013-10-28 15:42:00,57.0,42.0,30.12,WSW,248,0.0,6.0,57,0.00,,,0.00,,2013-10-28 19:42:00,
2013-10-28 15:52:00,56.0,41.0,30.12,WNW,292,2.0,2.0,57,0.00,,,0.00,,2013-10-28 19:52:00,
2013-10-28 16:22:00,56.0,42.0,30.12,West,270,0.0,5.0,59,0.00,,,0.00,,2013-10-28 20:22:00,
2013-10-28 16:52:00,56.0,42.0,30.12,WSW,248,0.0,0.0,60,0.00,,,0.00,,2013-10-28 20:52:00,
2013-10-28 17:22:00,55.0,42.0,30.15,West,270,0.0,0.0,61,0.00,,,0.00,,2013-10-28 21:22:00,
2013-10-28 17:53:00,55.0,42.0,30.15,WNW,292,0.0,0.0,61,0.00,,,0.00,,2013-10-28 21:53:00,
2013-10-28 18:23:00,54.0,40.0,30.18,West,270,0.0,0.0,58,0.00,,,0.00,,2013-10-28 22:23:00,
2013-10-28 18:53:00,53.0,39.0,30.18,NW,315,0.0,0.0,58,0.00,,,0.00,,2013-10-28 22:53:00,
2013-10-28 19:22:00,53.0,37.0,30.21,NNE,22,0.0,0.0,55,0.00,,,0.00,,2013-10-28 23:22:00,
2013-10-28 19:52:00,52.0,37.0,30.24,WSW,248,0.0,0.0,57,0.00,,,0.00,,2013-10-28 23:52:00,
2013-10-28 20:22:00,50.0,37.0,30.24,WSW,248,0.0,0.0,60,0.00,,,0.00,,2013-10-29 00:22:00,
2013-10-28 20:42:00,49.0,37.0,30.24,WSW,248,0.0,0.0,62,0.00,,,0.00,,2013-10-29 00:42:00,
2013-10-28 20:52:00,49.0,37.0,30.24,WSW,248,0.0,0.0,62,0.00,,,0.00,,2013-10-29 00:52:00,
2013-10-28 21:22:00,48.0,37.0,30.27,NE,45,0.0,0.0,65,0.00,,,0.00,,2013-10-29 01:22:00,
2013-10-28 21:42:00,48.0,37.0,30.27,NE,45,0.0,0.0,66,0.00,,,0.00,,2013-10-29 01:42:00,
2013-10-28 21:52:00,48.0,37.0,30.27,NNE,22,0.0,5.0,66,0.00,,,0.00,,2013-10-29 01:52:00,
2013-10-28 22:21:00,47.0,35.0,30.30,NNE,22,0.0,0.0,64,0.00,,,0.00,,2013-10-29 02:21:00,
2013-10-28 22:44:00,47.0,35.0,30.30,NNW,338,0.0,0.0,63,0.00,,,0.00,,2013-10-29 02:44:00,
2013-10-28 22:53:00,47.0,35.0,30.30,North,0,0.0,0.0,63,0.00,,,0.00,,2013-10-29 02:53:00,
2013-10-28 23:27:00,47.0,35.0,30.30,NNE,22,0.0,0.0,62,0.00,,,0.00,,2013-10-29 03:27:00,
2013-10-28 23:40:00,-999.0,-99.9,30.30,NNW,338,0.0,0.0,61,0.00,,,0.00,,2013-10-29 03:40:00,
2013-10-28 23:48:00,47.0,34.0,30.30,NNW,338,0.0,0.0,61,0.00,,,0.00,,2013-10-29 03:48:00,
2013-10-28 23:55:00,47.0,34.0,30.30,NNE,22,0.0,0.0,61,0.00,,,0.00,,2013-10-29 03:55:00,